sensor_id;sensor_type;location;lat;lon;timestamp;pressure;altitude;pressure_sealevel;temperature;humidity
75401;BME280;63974;47.538;18.972;2023-12-07T00:02:22;100137.84;;;0.96;100.00
75401;BME280;63974;47.538;18.972;2023-12-07T00:05:25;100134.00;;;0.90;100.00
75401;BME280;63974;47.538;18.972;2023-12-07T00:08:28;100134.59;;;0.94;100.00
75401;BME280;63974;47.538;18.972;2023-12-07T00:11:31;100150.41;;;0.99;100.00
75401;BME280;63974;47.538;18.972;2023-12-07T00:14:33;100144.72;;;0.95;100.00
75401;BME280;63974;47.538;18.972;2023-12-07T00:17:36;100144.00;;;0.93;100.00
75401;BME280;63974;47.538;18.972;2023-12-07T00:20:39;100147.81;;;0.88;100.00
75401;BME280;63974;47.538;18.972;2023-12-07T00:23:41;100147.69;;;0.89;100.00
75401;BME280;63974;47.538;18.972;2023-12-07T00:26:44;100153.88;;;0.87;100.00
75401;BME280;63974;47.538;18.972;2023-12-07T00:29:47;100146.19;;;0.87;100.00
75401;BME280;63974;47.538;18.972;2023-12-07T00:32:49;100138.88;;;0.82;100.00
75401;BME280;63974;47.538;18.972;2023-12-07T00:35:52;100144.44;;;0.87;100.00
75401;BME280;63974;47.538;18.972;2023-12-07T00:38:55;100144.91;;;0.81;100.00
75401;BME280;63974;47.538;18.972;2023-12-07T00:41:58;100145.84;;;0.80;100.00
75401;BME280;63974;47.538;18.972;2023-12-07T00:45:01;100152.44;;;0.83;100.00
75401;BME280;63974;47.538;18.972;2023-12-07T00:48:04;100147.56;;;0.80;100.00
75401;BME280;63974;47.538;18.972;2023-12-07T00:51:07;100153.03;;;0.86;100.00
75401;BME280;63974;47.538;18.972;2023-12-07T00:54:10;100156.25;;;0.77;100.00
75401;BME280;63974;47.538;18.972;2023-12-07T00:57:12;100159.53;;;0.79;100.00
75401;BME280;63974;47.538;18.972;2023-12-07T01:00:15;100162.09;;;0.90;100.00
75401;BME280;63974;47.538;18.972;2023-12-07T01:03:18;100155.72;;;0.96;100.00
75401;BME280;63974;47.538;18.972;2023-12-07T01:06:21;100155.03;;;0.94;100.00
75401;BME280;63974;47.538;18.972;2023-12-07T01:09:24;100158.66;;;1.02;100.00
75401;BME280;63974;47.538;18.972;2023-12-07T01:12:27;100144.22;;;0.90;100.00
75401;BME280;63974;47.538;18.972;2023-12-07T01:15:30;100163.91;;;1.01;100.00
75401;BME280;63974;47.538;18.972;2023-12-07T01:18:33;100145.78;;;1.04;100.00
75401;BME280;63974;47.538;18.972;2023-12-07T01:21:36;100148.00;;;1.08;100.00
75401;BME280;63974;47.538;18.972;2023-12-07T01:24:38;100142.75;;;0.99;100.00
75401;BME280;63974;47.538;18.972;2023-12-07T01:27:41;100162.38;;;0.98;100.00
75401;BME280;63974;47.538;18.972;2023-12-07T01:30:44;100159.25;;;1.06;100.00
75401;BME280;63974;47.538;18.972;2023-12-07T01:33:47;100161.13;;;1.04;100.00
75401;BME280;63974;47.538;18.972;2023-12-07T01:36:49;100157.28;;;1.09;100.00
75401;BME280;63974;47.538;18.972;2023-12-07T01:39:52;100161.94;;;1.15;100.00
75401;BME280;63974;47.538;18.972;2023-12-07T01:42:55;100157.41;;;1.08;100.00
75401;BME280;63974;47.538;18.972;2023-12-07T01:45:58;100164.72;;;1.12;100.00
75401;BME280;63974;47.538;18.972;2023-12-07T01:49:02;100154.50;;;1.12;100.00
75401;BME280;63974;47.538;18.972;2023-12-07T01:52:05;100158.25;;;1.19;100.00
75401;BME280;63974;47.538;18.972;2023-12-07T01:55:09;100156.16;;;1.24;100.00
75401;BME280;63974;47.538;18.972;2023-12-07T01:58:12;100156.16;;;1.24;100.00
75401;BME280;63974;47.538;18.972;2023-12-07T02:01:18;100151.31;;;1.32;100.00
75401;BME280;63974;47.538;18.972;2023-12-07T02:04:21;100151.06;;;1.35;100.00
75401;BME280;63974;47.538;18.972;2023-12-07T02:07:26;100145.50;;;1.30;100.00
75401;BME280;63974;47.538;18.972;2023-12-07T02:10:29;100147.13;;;1.31;100.00
75401;BME280;63974;47.538;18.972;2023-12-07T02:13:32;100138.75;;;1.29;100.00
75401;BME280;63974;47.538;18.972;2023-12-07T02:17:04;100141.66;;;1.36;100.00
75401;BME280;63974;47.538;18.972;2023-12-07T02:23:18;100143.50;;;1.23;100.00
75401;BME280;63974;47.538;18.972;2023-12-07T02:26:38;100141.06;;;1.21;100.00
75401;BME280;63974;47.538;18.972;2023-12-07T02:29:41;100138.25;;;1.24;100.00
75401;BME280;63974;47.538;18.972;2023-12-07T02:32:45;100139.31;;;1.22;100.00
75401;BME280;63974;47.538;18.972;2023-12-07T02:35:48;100145.94;;;1.24;100.00
75401;BME280;63974;47.538;18.972;2023-12-07T02:38:53;100147.00;;;1.22;100.00
75401;BME280;63974;47.538;18.972;2023-12-07T02:41:59;100141.31;;;1.29;100.00
75401;BME280;63974;47.538;18.972;2023-12-07T02:45:03;100145.13;;;1.24;100.00
75401;BME280;63974;47.538;18.972;2023-12-07T02:48:06;100139.31;;;1.33;100.00
75401;BME280;63974;47.538;18.972;2023-12-07T02:51:09;100149.69;;;1.31;100.00
75401;BME280;63974;47.538;18.972;2023-12-07T02:54:12;100144.44;;;1.33;100.00
75401;BME280;63974;47.538;18.972;2023-12-07T02:57:14;100146.66;;;1.37;100.00
75401;BME280;63974;47.538;18.972;2023-12-07T03:00:17;100146.88;;;1.34;100.00
75401;BME280;63974;47.538;18.972;2023-12-07T03:03:20;100155.81;;;1.29;100.00
75401;BME280;63974;47.538;18.972;2023-12-07T03:06:23;100152.47;;;1.28;100.00
75401;BME280;63974;47.538;18.972;2023-12-07T03:09:25;100158.75;;;1.35;100.00
75401;BME280;63974;47.538;18.972;2023-12-07T03:12:28;100155.75;;;1.41;100.00
75401;BME280;63974;47.538;18.972;2023-12-07T03:15:31;100164.22;;;1.42;100.00
75401;BME280;63974;47.538;18.972;2023-12-07T03:18:33;100164.81;;;1.45;100.00
75401;BME280;63974;47.538;18.972;2023-12-07T03:21:40;100166.44;;;1.46;100.00
75401;BME280;63974;47.538;18.972;2023-12-07T03:24:48;100172.84;;;1.52;100.00
75401;BME280;63974;47.538;18.972;2023-12-07T03:27:51;100172.50;;;1.56;100.00
75401;BME280;63974;47.538;18.972;2023-12-07T03:30:54;100172.72;;;1.53;100.00
75401;BME280;63974;47.538;18.972;2023-12-07T03:33:57;100182.97;;;1.53;100.00
75401;BME280;63974;47.538;18.972;2023-12-07T03:37:01;100184.25;;;1.59;100.00
75401;BME280;63974;47.538;18.972;2023-12-07T03:40:06;100179.94;;;1.59;100.00
75401;BME280;63974;47.538;18.972;2023-12-07T03:43:09;100180.03;;;1.58;100.00
75401;BME280;63974;47.538;18.972;2023-12-07T03:46:11;100189.72;;;1.54;100.00
75401;BME280;63974;47.538;18.972;2023-12-07T03:49:14;100192.03;;;1.57;100.00
75401;BME280;63974;47.538;18.972;2023-12-07T03:52:17;100169.47;;;1.62;100.00
75401;BME280;63974;47.538;18.972;2023-12-07T03:55:21;100184.72;;;1.64;100.00
75401;BME280;63974;47.538;18.972;2023-12-07T03:58:24;100196.94;;;1.82;100.00
75401;BME280;63974;47.538;18.972;2023-12-07T04:01:28;100203.44;;;1.97;100.00
75401;BME280;63974;47.538;18.972;2023-12-07T04:04:31;100204.63;;;1.93;100.00
75401;BME280;63974;47.538;18.972;2023-12-07T04:07:34;100213.56;;;1.88;100.00
75401;BME280;63974;47.538;18.972;2023-12-07T04:10:37;100203.69;;;1.83;100.00
75401;BME280;63974;47.538;18.972;2023-12-07T04:13:41;100224.41;;;2.02;100.00
75401;BME280;63974;47.538;18.972;2023-12-07T04:16:44;100228.81;;;2.00;100.00
75401;BME280;63974;47.538;18.972;2023-12-07T04:19:47;100241.50;;;2.02;100.00
75401;BME280;63974;47.538;18.972;2023-12-07T04:22:49;100233.94;;;2.00;100.00
75401;BME280;63974;47.538;18.972;2023-12-07T04:25:52;100229.03;;;1.97;100.00
75401;BME280;63974;47.538;18.972;2023-12-07T04:28:55;100235.59;;;2.01;100.00
75401;BME280;63974;47.538;18.972;2023-12-07T04:31:57;100234.41;;;1.94;100.00
75401;BME280;63974;47.538;18.972;2023-12-07T04:35:00;100234.66;;;1.91;100.00
75401;BME280;63974;47.538;18.972;2023-12-07T04:38:03;100235.34;;;1.93;100.00
75401;BME280;63974;47.538;18.972;2023-12-07T04:41:05;100234.41;;;2.05;100.00
75401;BME280;63974;47.538;18.972;2023-12-07T04:44:08;100241.16;;;1.95;100.00
75401;BME280;63974;47.538;18.972;2023-12-07T04:47:10;100246.75;;;1.89;100.00
75401;BME280;63974;47.538;18.972;2023-12-07T04:50:14;100228.84;;;1.89;100.00
75401;BME280;63974;47.538;18.972;2023-12-07T04:53:16;100233.00;;;1.90;100.00
75401;BME280;63974;47.538;18.972;2023-12-07T04:56:19;100244.75;;;1.93;100.00
75401;BME280;63974;47.538;18.972;2023-12-07T04:59:22;100262.22;;;1.99;100.00
75401;BME280;63974;47.538;18.972;2023-12-07T05:02:25;100254.78;;;1.96;100.00
75401;BME280;63974;47.538;18.972;2023-12-07T05:05:30;100259.66;;;1.99;100.00
75401;BME280;63974;47.538;18.972;2023-12-07T05:08:33;100268.97;;;2.00;100.00
75401;BME280;63974;47.538;18.972;2023-12-07T05:11:35;100273.03;;;1.91;100.00
75401;BME280;63974;47.538;18.972;2023-12-07T05:14:38;100266.84;;;1.94;100.00
75401;BME280;63974;47.538;18.972;2023-12-07T05:17:41;100279.56;;;1.95;100.00
75401;BME280;63974;47.538;18.972;2023-12-07T05:20:44;100292.69;;;1.91;100.00
75401;BME280;63974;47.538;18.972;2023-12-07T05:23:47;100280.25;;;1.97;100.00
75401;BME280;63974;47.538;18.972;2023-12-07T05:26:49;100280.38;;;1.96;100.00
75401;BME280;63974;47.538;18.972;2023-12-07T05:29:52;100282.81;;;1.97;100.00
75401;BME280;63974;47.538;18.972;2023-12-07T05:32:55;100287.56;;;1.91;100.00
75401;BME280;63974;47.538;18.972;2023-12-07T05:35:58;100277.91;;;1.83;100.00
75401;BME280;63974;47.538;18.972;2023-12-07T05:39:01;100282.81;;;1.97;100.00
75401;BME280;63974;47.538;18.972;2023-12-07T05:42:04;100289.53;;;1.87;100.00
75401;BME280;63974;47.538;18.972;2023-12-07T05:45:07;100298.63;;;1.91;100.00
75401;BME280;63974;47.538;18.972;2023-12-07T05:48:11;100295.16;;;1.92;100.00
75401;BME280;63974;47.538;18.972;2023-12-07T05:51:18;100290.97;;;1.91;100.00
75401;BME280;63974;47.538;18.972;2023-12-07T05:54:22;100311.09;;;1.96;100.00
75401;BME280;63974;47.538;18.972;2023-12-07T05:57:25;100294.91;;;1.95;100.00
75401;BME280;63974;47.538;18.972;2023-12-07T06:00:28;100305.38;;;1.92;100.00
75401;BME280;63974;47.538;18.972;2023-12-07T06:03:31;100304.47;;;1.93;100.00
75401;BME280;63974;47.538;18.972;2023-12-07T06:06:35;100308.28;;;1.88;100.00
75401;BME280;63974;47.538;18.972;2023-12-07T06:09:37;100315.38;;;1.84;100.00
75401;BME280;63974;47.538;18.972;2023-12-07T06:12:40;100319.69;;;1.84;100.00
75401;BME280;63974;47.538;18.972;2023-12-07T06:15:43;100308.72;;;1.82;100.00
75401;BME280;63974;47.538;18.972;2023-12-07T06:18:46;100318.75;;;1.85;100.00
75401;BME280;63974;47.538;18.972;2023-12-07T06:21:49;100326.22;;;1.88;100.00
75401;BME280;63974;47.538;18.972;2023-12-07T06:24:51;100322.47;;;1.92;100.00
75401;BME280;63974;47.538;18.972;2023-12-07T06:27:54;100320.97;;;1.89;100.00
75401;BME280;63974;47.538;18.972;2023-12-07T06:31:04;100323.75;;;1.86;100.00
75401;BME280;63974;47.538;18.972;2023-12-07T06:34:09;100334.13;;;1.85;100.00
75401;BME280;63974;47.538;18.972;2023-12-07T06:37:12;100335.75;;;1.86;100.00
75401;BME280;63974;47.538;18.972;2023-12-07T06:40:15;100336.91;;;1.93;100.00
75401;BME280;63974;47.538;18.972;2023-12-07T06:43:18;100333.56;;;1.92;100.00
75401;BME280;63974;47.538;18.972;2023-12-07T06:46:21;100347.28;;;1.91;100.00
75401;BME280;63974;47.538;18.972;2023-12-07T06:49:23;100351.34;;;1.94;100.00
75401;BME280;63974;47.538;18.972;2023-12-07T06:52:37;100358.81;;;1.97;100.00
75401;BME280;63974;47.538;18.972;2023-12-07T06:55:40;100341.09;;;1.94;100.00
75401;BME280;63974;47.538;18.972;2023-12-07T06:58:47;100359.75;;;1.96;100.00
75401;BME280;63974;47.538;18.972;2023-12-07T07:01:49;100354.63;;;1.96;100.00
75401;BME280;63974;47.538;18.972;2023-12-07T07:04:52;100357.63;;;1.90;100.00
75401;BME280;63974;47.538;18.972;2023-12-07T07:07:56;100384.63;;;1.94;100.00
75401;BME280;63974;47.538;18.972;2023-12-07T07:10:58;100363.41;;;1.81;100.00
75401;BME280;63974;47.538;18.972;2023-12-07T07:14:01;100360.75;;;1.82;100.00
75401;BME280;63974;47.538;18.972;2023-12-07T07:17:04;100365.03;;;1.82;100.00
75401;BME280;63974;47.538;18.972;2023-12-07T07:20:07;100360.28;;;1.77;100.00
75401;BME280;63974;47.538;18.972;2023-12-07T07:23:10;100376.75;;;1.73;100.00
75401;BME280;63974;47.538;18.972;2023-12-07T07:26:13;100366.53;;;1.73;100.00
75401;BME280;63974;47.538;18.972;2023-12-07T07:29:19;100358.59;;;1.65;100.00
75401;BME280;63974;47.538;18.972;2023-12-07T07:32:22;100374.28;;;1.61;100.00
75401;BME280;63974;47.538;18.972;2023-12-07T07:35:25;100376.91;;;1.72;100.00
75401;BME280;63974;47.538;18.972;2023-12-07T07:38:29;100387.84;;;1.74;100.00
75401;BME280;63974;47.538;18.972;2023-12-07T07:41:32;100372.47;;;1.74;100.00
75401;BME280;63974;47.538;18.972;2023-12-07T07:44:37;100379.94;;;1.77;100.00
75401;BME280;63974;47.538;18.972;2023-12-07T07:47:40;100379.59;;;1.81;100.00
75401;BME280;63974;47.538;18.972;2023-12-07T07:50:43;100377.13;;;1.80;100.00
75401;BME280;63974;47.538;18.972;2023-12-07T07:53:46;100376.09;;;1.82;100.00
75401;BME280;63974;47.538;18.972;2023-12-07T07:56:48;100389.03;;;1.92;100.00
75401;BME280;63974;47.538;18.972;2023-12-07T07:59:51;100378.44;;;1.85;100.00
75401;BME280;63974;47.538;18.972;2023-12-07T08:02:55;100384.84;;;1.91;100.00
75401;BME280;63974;47.538;18.972;2023-12-07T08:05:58;100392.66;;;1.89;100.00
75401;BME280;63974;47.538;18.972;2023-12-07T08:09:01;100383.13;;;1.91;100.00
75401;BME280;63974;47.538;18.972;2023-12-07T08:12:04;100395.09;;;1.91;100.00
75401;BME280;63974;47.538;18.972;2023-12-07T08:15:08;100400.81;;;1.94;100.00
75401;BME280;63974;47.538;18.972;2023-12-07T08:18:13;100406.63;;;1.96;100.00
75401;BME280;63974;47.538;18.972;2023-12-07T08:21:21;100390.47;;;1.96;100.00
75401;BME280;63974;47.538;18.972;2023-12-07T08:24:29;100408.50;;;1.94;100.00
75401;BME280;63974;47.538;18.972;2023-12-07T08:27:32;100383.31;;;1.88;100.00
75401;BME280;63974;47.538;18.972;2023-12-07T08:30:36;100414.81;;;2.01;100.00
75401;BME280;63974;47.538;18.972;2023-12-07T08:33:39;100401.75;;;1.93;100.00
75401;BME280;63974;47.538;18.972;2023-12-07T08:36:42;100403.84;;;1.99;100.00
75401;BME280;63974;47.538;18.972;2023-12-07T08:39:45;100411.97;;;1.93;100.00
75401;BME280;63974;47.538;18.972;2023-12-07T08:42:48;100415.56;;;1.91;100.00
75401;BME280;63974;47.538;18.972;2023-12-07T08:45:54;100414.41;;;1.84;100.00
75401;BME280;63974;47.538;18.972;2023-12-07T08:49:03;100404.88;;;1.86;100.00
75401;BME280;63974;47.538;18.972;2023-12-07T08:52:06;100413.16;;;1.89;100.00
75401;BME280;63974;47.538;18.972;2023-12-07T08:55:28;100435.28;;;2.01;100.00
75401;BME280;63974;47.538;18.972;2023-12-07T08:58:32;100421.75;;;1.99;100.00
75401;BME280;63974;47.538;18.972;2023-12-07T09:01:35;100419.72;;;2.15;100.00
75401;BME280;63974;47.538;18.972;2023-12-07T09:04:38;100415.06;;;2.20;100.00
75401;BME280;63974;47.538;18.972;2023-12-07T09:07:42;100421.13;;;2.19;100.00
75401;BME280;63974;47.538;18.972;2023-12-07T09:10:45;100426.34;;;2.17;100.00
75401;BME280;63974;47.538;18.972;2023-12-07T09:13:50;100425.06;;;2.12;100.00
75401;BME280;63974;47.538;18.972;2023-12-07T09:16:53;100429.94;;;2.04;100.00
75401;BME280;63974;47.538;18.972;2023-12-07T09:19:57;100432.03;;;2.10;100.00
75401;BME280;63974;47.538;18.972;2023-12-07T09:22:59;100438.22;;;2.08;100.00
75401;BME280;63974;47.538;18.972;2023-12-07T09:26:03;100418.09;;;2.14;100.00
75401;BME280;63974;47.538;18.972;2023-12-07T09:29:06;100421.97;;;2.19;100.00
75401;BME280;63974;47.538;18.972;2023-12-07T09:32:08;100427.25;;;2.40;100.00
75401;BME280;63974;47.538;18.972;2023-12-07T09:35:12;100420.66;;;2.25;100.00
75401;BME280;63974;47.538;18.972;2023-12-07T09:38:22;100410.56;;;2.23;100.00
75401;BME280;63974;47.538;18.972;2023-12-07T09:41:27;100416.28;;;2.27;100.00
75401;BME280;63974;47.538;18.972;2023-12-07T09:44:30;100397.97;;;2.20;100.00
75401;BME280;63974;47.538;18.972;2023-12-07T09:47:37;100417.34;;;2.46;100.00
75401;BME280;63974;47.538;18.972;2023-12-07T09:50:41;100418.50;;;2.31;100.00
75401;BME280;63974;47.538;18.972;2023-12-07T09:53:45;100426.41;;;2.39;100.00
75401;BME280;63974;47.538;18.972;2023-12-07T09:56:52;100418.84;;;2.38;100.00
75401;BME280;63974;47.538;18.972;2023-12-07T09:59:57;100411.06;;;2.50;100.00
75401;BME280;63974;47.538;18.972;2023-12-07T10:02:59;100414.78;;;2.35;100.00
75401;BME280;63974;47.538;18.972;2023-12-07T10:06:03;100406.28;;;2.46;100.00
75401;BME280;63974;47.538;18.972;2023-12-07T10:09:05;100417.94;;;2.50;99.07
75401;BME280;63974;47.538;18.972;2023-12-07T10:12:16;100428.19;;;2.50;98.83
75401;BME280;63974;47.538;18.972;2023-12-07T10:15:20;100429.81;;;2.51;98.67
75401;BME280;63974;47.538;18.972;2023-12-07T10:18:23;100409.88;;;2.54;98.68
75401;BME280;63974;47.538;18.972;2023-12-07T10:21:32;100413.41;;;2.64;97.91
75401;BME280;63974;47.538;18.972;2023-12-07T10:24:35;100421.22;;;2.63;97.81
75401;BME280;63974;47.538;18.972;2023-12-07T10:27:40;100412.69;;;2.62;97.36
75401;BME280;63974;47.538;18.972;2023-12-07T10:30:44;100435.66;;;2.53;97.92
75401;BME280;63974;47.538;18.972;2023-12-07T10:33:49;100401.75;;;2.49;97.94
75401;BME280;63974;47.538;18.972;2023-12-07T10:36:52;100409.78;;;2.56;98.27
75401;BME280;63974;47.538;18.972;2023-12-07T10:39:55;100401.50;;;2.52;98.10
75401;BME280;63974;47.538;18.972;2023-12-07T10:42:58;100394.06;;;2.49;97.78
75401;BME280;63974;47.538;18.972;2023-12-07T10:46:06;100409.75;;;2.45;98.53
75401;BME280;63974;47.538;18.972;2023-12-07T10:49:17;100405.00;;;2.51;99.27
75401;BME280;63974;47.538;18.972;2023-12-07T10:52:34;100408.47;;;2.39;99.57
75401;BME280;63974;47.538;18.972;2023-12-07T10:55:49;100405.69;;;2.53;99.20
75401;BME280;63974;47.538;18.972;2023-12-07T10:58:55;100418.75;;;2.50;98.66
75401;BME280;63974;47.538;18.972;2023-12-07T11:01:59;100403.59;;;2.47;98.70
75401;BME280;63974;47.538;18.972;2023-12-07T11:05:03;100404.31;;;2.60;98.35
75401;BME280;63974;47.538;18.972;2023-12-07T11:08:09;100416.09;;;2.63;98.29
75401;BME280;63974;47.538;18.972;2023-12-07T11:14:23;100409.34;;;2.62;97.99
75401;BME280;63974;47.538;18.972;2023-12-07T11:17:26;100413.41;;;2.64;98.62
75401;BME280;63974;47.538;18.972;2023-12-07T11:20:41;100409.88;;;2.54;98.21
75401;BME280;63974;47.538;18.972;2023-12-07T11:23:44;100413.84;;;2.47;98.77
75401;BME280;63974;47.538;18.972;2023-12-07T11:26:47;100410.13;;;2.51;98.93
75401;BME280;63974;47.538;18.972;2023-12-07T11:29:50;100413.38;;;2.42;99.13
75401;BME280;63974;47.538;18.972;2023-12-07T11:32:54;100407.47;;;2.53;98.82
75401;BME280;63974;47.538;18.972;2023-12-07T11:36:03;100420.38;;;2.51;98.78
75401;BME280;63974;47.538;18.972;2023-12-07T11:42:21;100427.47;;;2.59;98.65
75401;BME280;63974;47.538;18.972;2023-12-07T11:45:39;100416.78;;;2.54;99.14
75401;BME280;63974;47.538;18.972;2023-12-07T11:48:46;100418.84;;;2.49;99.48
75401;BME280;63974;47.538;18.972;2023-12-07T11:51:50;100426.91;;;2.44;99.83
75401;BME280;63974;47.538;18.972;2023-12-07T11:54:52;100414.28;;;2.41;100.00
75401;BME280;63974;47.538;18.972;2023-12-07T11:57:55;100429.81;;;2.40;99.77
75401;BME280;63974;47.538;18.972;2023-12-07T12:00:58;100412.34;;;2.56;99.74
75401;BME280;63974;47.538;18.972;2023-12-07T12:04:01;100429.22;;;2.47;99.79
75401;BME280;63974;47.538;18.972;2023-12-07T12:07:05;100432.81;;;2.45;99.76
75401;BME280;63974;47.538;18.972;2023-12-07T12:10:07;100430.75;;;2.39;100.00
75401;BME280;63974;47.538;18.972;2023-12-07T12:13:11;100439.34;;;2.38;99.82
75401;BME280;63974;47.538;18.972;2023-12-07T12:16:14;100431.31;;;2.42;99.72
75401;BME280;63974;47.538;18.972;2023-12-07T12:19:17;100428.63;;;2.44;99.67
75401;BME280;63974;47.538;18.972;2023-12-07T12:22:36;100432.50;;;2.49;99.89
75401;BME280;63974;47.538;18.972;2023-12-07T12:25:39;100427.94;;;2.42;99.90
75401;BME280;63974;47.538;18.972;2023-12-07T12:28:43;100426.53;;;2.49;100.00
75401;BME280;63974;47.538;18.972;2023-12-07T12:31:47;100432.38;;;2.51;99.22
75401;BME280;63974;47.538;18.972;2023-12-07T12:34:51;100426.34;;;2.63;99.36
75401;BME280;63974;47.538;18.972;2023-12-07T12:37:55;100428.31;;;2.59;98.34
75401;BME280;63974;47.538;18.972;2023-12-07T12:40:58;100434.63;;;2.55;98.69
75401;BME280;63974;47.538;18.972;2023-12-07T12:44:00;100430.63;;;2.51;99.67
75401;BME280;63974;47.538;18.972;2023-12-07T12:47:07;100429.56;;;2.43;99.79
75401;BME280;63974;47.538;18.972;2023-12-07T12:50:37;100435.03;;;2.38;99.85
75401;BME280;63974;47.538;18.972;2023-12-07T12:53:45;100427.25;;;2.40;99.94
75401;BME280;63974;47.538;18.972;2023-12-07T12:56:53;100444.13;;;2.31;100.00
75401;BME280;63974;47.538;18.972;2023-12-07T12:59:55;100438.50;;;2.26;100.00
75401;BME280;63974;47.538;18.972;2023-12-07T13:03:03;100448.28;;;2.21;100.00
75401;BME280;63974;47.538;18.972;2023-12-07T13:06:07;100443.47;;;2.17;100.00
75401;BME280;63974;47.538;18.972;2023-12-07T13:09:09;100446.41;;;2.23;100.00
75401;BME280;63974;47.538;18.972;2023-12-07T13:12:12;100451.66;;;2.33;100.00
75401;BME280;63974;47.538;18.972;2023-12-07T13:15:16;100440.72;;;2.31;100.00
75401;BME280;63974;47.538;18.972;2023-12-07T13:18:19;100450.88;;;2.32;100.00
75401;BME280;63974;47.538;18.972;2023-12-07T13:21:22;100446.09;;;2.28;100.00
75401;BME280;63974;47.538;18.972;2023-12-07T13:24:25;100449.25;;;2.31;100.00
75401;BME280;63974;47.538;18.972;2023-12-07T13:27:28;100448.50;;;2.29;100.00
75401;BME280;63974;47.538;18.972;2023-12-07T13:30:31;100453.06;;;2.26;100.00
75401;BME280;63974;47.538;18.972;2023-12-07T13:33:37;100459.00;;;2.26;100.00
75401;BME280;63974;47.538;18.972;2023-12-07T13:36:54;100462.72;;;2.22;100.00
75401;BME280;63974;47.538;18.972;2023-12-07T13:39:58;100470.25;;;2.13;100.00
75401;BME280;63974;47.538;18.972;2023-12-07T13:43:02;100476.75;;;2.06;100.00
75401;BME280;63974;47.538;18.972;2023-12-07T13:46:05;100477.75;;;2.04;100.00
75401;BME280;63974;47.538;18.972;2023-12-07T13:49:08;100476.03;;;2.04;100.00
75401;BME280;63974;47.538;18.972;2023-12-07T13:52:23;100482.78;;;2.05;100.00
75401;BME280;63974;47.538;18.972;2023-12-07T13:55:26;100487.63;;;1.97;100.00
75401;BME280;63974;47.538;18.972;2023-12-07T13:58:29;100495.31;;;1.97;100.00
75401;BME280;63974;47.538;18.972;2023-12-07T14:01:31;100489.25;;;1.98;100.00
75401;BME280;63974;47.538;18.972;2023-12-07T14:04:34;100500.44;;;1.97;100.00
75401;BME280;63974;47.538;18.972;2023-12-07T14:07:38;100502.56;;;2.03;100.00
75401;BME280;63974;47.538;18.972;2023-12-07T14:10:42;100504.63;;;1.98;100.00
75401;BME280;63974;47.538;18.972;2023-12-07T14:13:47;100499.63;;;1.97;100.00
75401;BME280;63974;47.538;18.972;2023-12-07T14:16:51;100515.69;;;1.99;100.00
75401;BME280;63974;47.538;18.972;2023-12-07T14:19:58;100513.69;;;1.91;100.00
75401;BME280;63974;47.538;18.972;2023-12-07T14:23:20;100518.69;;;1.93;100.00
75401;BME280;63974;47.538;18.972;2023-12-07T14:26:23;100522.38;;;1.89;100.00
75401;BME280;63974;47.538;18.972;2023-12-07T14:29:26;100540.69;;;1.95;100.00
75401;BME280;63974;47.538;18.972;2023-12-07T14:32:29;100536.50;;;1.94;100.00
75401;BME280;63974;47.538;18.972;2023-12-07T14:35:32;100538.97;;;1.96;100.00
75401;BME280;63974;47.538;18.972;2023-12-07T14:38:35;100539.16;;;1.93;100.00
75401;BME280;63974;47.538;18.972;2023-12-07T14:41:38;100535.81;;;1.92;100.00
75401;BME280;63974;47.538;18.972;2023-12-07T14:44:45;100543.56;;;1.91;100.00
75401;BME280;63974;47.538;18.972;2023-12-07T14:47:48;100543.09;;;1.86;100.00
75401;BME280;63974;47.538;18.972;2023-12-07T14:50:52;100551.69;;;1.85;100.00
75401;BME280;63974;47.538;18.972;2023-12-07T14:53:54;100545.53;;;1.87;100.00
75401;BME280;63974;47.538;18.972;2023-12-07T14:56:57;100552.63;;;1.84;100.00
75401;BME280;63974;47.538;18.972;2023-12-07T15:00:00;100551.81;;;1.83;100.00
75401;BME280;63974;47.538;18.972;2023-12-07T15:03:07;100552.81;;;1.81;100.00
75401;BME280;63974;47.538;18.972;2023-12-07T15:06:10;100548.94;;;1.75;100.00
75401;BME280;63974;47.538;18.972;2023-12-07T15:09:12;100546.50;;;1.74;100.00
75401;BME280;63974;47.538;18.972;2023-12-07T15:12:15;100552.94;;;1.79;100.00
75401;BME280;63974;47.538;18.972;2023-12-07T15:15:21;100550.06;;;1.84;100.00
75401;BME280;63974;47.538;18.972;2023-12-07T15:18:24;100557.41;;;1.88;100.00
75401;BME280;63974;47.538;18.972;2023-12-07T15:21:27;100553.03;;;1.90;100.00
75401;BME280;63974;47.538;18.972;2023-12-07T15:24:30;100560.19;;;1.85;100.00
75401;BME280;63974;47.538;18.972;2023-12-07T15:27:38;100554.44;;;1.82;100.00
75401;BME280;63974;47.538;18.972;2023-12-07T15:30:40;100561.34;;;1.81;100.00
75401;BME280;63974;47.538;18.972;2023-12-07T15:33:43;100562.03;;;1.83;100.00
75401;BME280;63974;47.538;18.972;2023-12-07T15:36:46;100557.94;;;1.81;100.00
75401;BME280;63974;47.538;18.972;2023-12-07T15:39:49;100560.94;;;1.75;100.00
75401;BME280;63974;47.538;18.972;2023-12-07T15:42:53;100557.47;;;1.76;100.00
75401;BME280;63974;47.538;18.972;2023-12-07T15:45:56;100561.16;;;1.72;100.00
75401;BME280;63974;47.538;18.972;2023-12-07T15:48:59;100552.88;;;1.68;100.00
75401;BME280;63974;47.538;18.972;2023-12-07T15:52:03;100564.97;;;1.66;100.00
75401;BME280;63974;47.538;18.972;2023-12-07T15:55:06;100565.97;;;1.64;100.00
75401;BME280;63974;47.538;18.972;2023-12-07T15:58:09;100577.03;;;1.64;100.00
75401;BME280;63974;47.538;18.972;2023-12-07T16:01:13;100571.91;;;1.64;100.00